sensor_id;sensor_type;location;lat;lon;timestamp;P1;durP1;ratioP1;P2;durP2;ratioP2
70866;SDS011;58487;53.474;49.470;2023-05-31T00:00:16;18.10;;;5.50;;
70866;SDS011;58487;53.474;49.470;2023-05-31T00:02:42;11.93;;;4.90;;
70866;SDS011;58487;53.474;49.470;2023-05-31T00:05:08;14.07;;;5.10;;
70866;SDS011;58487;53.474;49.470;2023-05-31T00:07:34;10.57;;;4.47;;
70866;SDS011;58487;53.474;49.470;2023-05-31T00:10:01;13.27;;;4.68;;
70866;SDS011;58487;53.474;49.470;2023-05-31T00:12:27;17.77;;;4.97;;
70866;SDS011;58487;53.474;49.470;2023-05-31T00:14:53;15.98;;;5.03;;
70866;SDS011;58487;53.474;49.470;2023-05-31T00:17:19;14.25;;;4.82;;
70866;SDS011;58487;53.474;49.470;2023-05-31T00:19:45;14.93;;;5.00;;
70866;SDS011;58487;53.474;49.470;2023-05-31T00:22:11;15.45;;;5.03;;
70866;SDS011;58487;53.474;49.470;2023-05-31T00:24:37;16.98;;;5.00;;
70866;SDS011;58487;53.474;49.470;2023-05-31T00:27:03;15.73;;;4.72;;
70866;SDS011;58487;53.474;49.470;2023-05-31T00:29:30;15.20;;;4.88;;
70866;SDS011;58487;53.474;49.470;2023-05-31T00:31:56;13.37;;;5.20;;
70866;SDS011;58487;53.474;49.470;2023-05-31T00:34:22;19.23;;;5.13;;
70866;SDS011;58487;53.474;49.470;2023-05-31T00:36:48;17.55;;;5.07;;
70866;SDS011;58487;53.474;49.470;2023-05-31T00:39:14;16.17;;;5.78;;
70866;SDS011;58487;53.474;49.470;2023-05-31T00:41:40;22.27;;;4.95;;
70866;SDS011;58487;53.474;49.470;2023-05-31T00:44:06;14.53;;;4.90;;
70866;SDS011;58487;53.474;49.470;2023-05-31T00:46:33;17.58;;;5.18;;
70866;SDS011;58487;53.474;49.470;2023-05-31T00:49:03;22.33;;;5.32;;
70866;SDS011;58487;53.474;49.470;2023-05-31T00:51:31;24.92;;;5.25;;
70866;SDS011;58487;53.474;49.470;2023-05-31T00:53:59;19.48;;;5.63;;
70866;SDS011;58487;53.474;49.470;2023-05-31T00:56:26;22.47;;;5.10;;
70866;SDS011;58487;53.474;49.470;2023-05-31T00:58:53;16.88;;;5.65;;
70866;SDS011;58487;53.474;49.470;2023-05-31T01:01:21;14.80;;;4.85;;
70866;SDS011;58487;53.474;49.470;2023-05-31T01:03:52;26.02;;;5.53;;
70866;SDS011;58487;53.474;49.470;2023-05-31T01:06:19;18.42;;;4.85;;
70866;SDS011;58487;53.474;49.470;2023-05-31T01:08:45;13.07;;;4.70;;
70866;SDS011;58487;53.474;49.470;2023-05-31T01:11:49;17.85;;;4.43;;
70866;SDS011;58487;53.474;49.470;2023-05-31T01:16:52;11.32;;;4.05;;
70866;SDS011;58487;53.474;49.470;2023-05-31T01:19:25;16.65;;;4.82;;
70866;SDS011;58487;53.474;49.470;2023-05-31T01:25:02;14.75;;;4.68;;
70866;SDS011;58487;53.474;49.470;2023-05-31T01:27:43;11.27;;;4.15;;
70866;SDS011;58487;53.474;49.470;2023-05-31T01:30:11;18.90;;;4.53;;
70866;SDS011;58487;53.474;49.470;2023-05-31T01:32:38;13.93;;;4.35;;
70866;SDS011;58487;53.474;49.470;2023-05-31T01:35:05;10.77;;;4.90;;
70866;SDS011;58487;53.474;49.470;2023-05-31T01:37:31;11.90;;;4.72;;
70866;SDS011;58487;53.474;49.470;2023-05-31T01:39:57;17.13;;;5.03;;
70866;SDS011;58487;53.474;49.470;2023-05-31T01:42:24;12.27;;;4.70;;
70866;SDS011;58487;53.474;49.470;2023-05-31T01:44:51;13.80;;;5.00;;
70866;SDS011;58487;53.474;49.470;2023-05-31T01:47:18;11.93;;;4.70;;
70866;SDS011;58487;53.474;49.470;2023-05-31T01:49:47;16.83;;;5.05;;
70866;SDS011;58487;53.474;49.470;2023-05-31T01:52:14;10.93;;;4.55;;
70866;SDS011;58487;53.474;49.470;2023-05-31T01:54:42;11.50;;;4.60;;
70866;SDS011;58487;53.474;49.470;2023-05-31T01:57:08;15.05;;;4.32;;
70866;SDS011;58487;53.474;49.470;2023-05-31T01:59:35;13.20;;;4.67;;
70866;SDS011;58487;53.474;49.470;2023-05-31T02:02:03;17.73;;;4.90;;
70866;SDS011;58487;53.474;49.470;2023-05-31T02:04:31;15.98;;;4.60;;
70866;SDS011;58487;53.474;49.470;2023-05-31T02:06:57;16.83;;;4.82;;
70866;SDS011;58487;53.474;49.470;2023-05-31T02:09:23;11.63;;;4.63;;
70866;SDS011;58487;53.474;49.470;2023-05-31T02:11:49;11.27;;;4.37;;
70866;SDS011;58487;53.474;49.470;2023-05-31T02:14:15;15.23;;;4.55;;
70866;SDS011;58487;53.474;49.470;2023-05-31T02:16:41;15.77;;;5.63;;
70866;SDS011;58487;53.474;49.470;2023-05-31T02:19:07;11.38;;;5.15;;
70866;SDS011;58487;53.474;49.470;2023-05-31T02:21:33;14.05;;;4.30;;
70866;SDS011;58487;53.474;49.470;2023-05-31T02:24:03;13.80;;;4.50;;
70866;SDS011;58487;53.474;49.470;2023-05-31T02:26:29;17.25;;;4.53;;
70866;SDS011;58487;53.474;49.470;2023-05-31T02:28:55;12.23;;;4.28;;
70866;SDS011;58487;53.474;49.470;2023-05-31T02:31:22;15.15;;;4.05;;
70866;SDS011;58487;53.474;49.470;2023-05-31T02:33:48;9.77;;;4.07;;
70866;SDS011;58487;53.474;49.470;2023-05-31T02:36:14;12.43;;;3.70;;
70866;SDS011;58487;53.474;49.470;2023-05-31T02:38:40;15.73;;;4.47;;
70866;SDS011;58487;53.474;49.470;2023-05-31T02:41:06;13.40;;;4.00;;
70866;SDS011;58487;53.474;49.470;2023-05-31T02:43:32;9.85;;;3.47;;
70866;SDS011;58487;53.474;49.470;2023-05-31T02:45:58;13.02;;;4.47;;
70866;SDS011;58487;53.474;49.470;2023-05-31T02:48:27;11.43;;;3.83;;
70866;SDS011;58487;53.474;49.470;2023-05-31T02:50:55;10.48;;;3.65;;
70866;SDS011;58487;53.474;49.470;2023-05-31T02:53:21;10.63;;;3.70;;
70866;SDS011;58487;53.474;49.470;2023-05-31T02:55:47;15.10;;;4.03;;
70866;SDS011;58487;53.474;49.470;2023-05-31T02:58:13;17.00;;;3.88;;
70866;SDS011;58487;53.474;49.470;2023-05-31T03:00:43;12.80;;;3.40;;
70866;SDS011;58487;53.474;49.470;2023-05-31T03:03:10;15.30;;;3.33;;
70866;SDS011;58487;53.474;49.470;2023-05-31T03:05:42;12.10;;;3.97;;
70866;SDS011;58487;53.474;49.470;2023-05-31T03:08:09;17.23;;;3.80;;
70866;SDS011;58487;53.474;49.470;2023-05-31T03:10:35;11.65;;;3.30;;
70866;SDS011;58487;53.474;49.470;2023-05-31T03:13:01;15.00;;;3.63;;
70866;SDS011;58487;53.474;49.470;2023-05-31T03:15:27;17.73;;;3.90;;
70866;SDS011;58487;53.474;49.470;2023-05-31T03:17:54;10.32;;;3.53;;
70866;SDS011;58487;53.474;49.470;2023-05-31T03:20:20;10.88;;;3.88;;
70866;SDS011;58487;53.474;49.470;2023-05-31T03:22:47;15.77;;;3.55;;
70866;SDS011;58487;53.474;49.470;2023-05-31T03:25:14;16.57;;;3.77;;
70866;SDS011;58487;53.474;49.470;2023-05-31T03:27:40;14.40;;;4.00;;
70866;SDS011;58487;53.474;49.470;2023-05-31T03:30:07;15.40;;;3.40;;
70866;SDS011;58487;53.474;49.470;2023-05-31T03:32:33;13.20;;;3.90;;
70866;SDS011;58487;53.474;49.470;2023-05-31T03:34:59;14.43;;;4.27;;
70866;SDS011;58487;53.474;49.470;2023-05-31T03:37:25;15.60;;;3.50;;
70866;SDS011;58487;53.474;49.470;2023-05-31T03:39:51;15.88;;;3.60;;
70866;SDS011;58487;53.474;49.470;2023-05-31T03:42:17;13.63;;;3.92;;
70866;SDS011;58487;53.474;49.470;2023-05-31T03:44:43;11.20;;;3.33;;
70866;SDS011;58487;53.474;49.470;2023-05-31T03:47:10;13.40;;;3.90;;
70866;SDS011;58487;53.474;49.470;2023-05-31T03:49:36;14.00;;;4.00;;
70866;SDS011;58487;53.474;49.470;2023-05-31T03:52:02;14.63;;;4.00;;
70866;SDS011;58487;53.474;49.470;2023-05-31T03:54:29;16.77;;;3.80;;
70866;SDS011;58487;53.474;49.470;2023-05-31T03:56:55;11.27;;;3.40;;
70866;SDS011;58487;53.474;49.470;2023-05-31T03:59:21;12.73;;;3.50;;
70866;SDS011;58487;53.474;49.470;2023-05-31T04:01:48;12.77;;;3.37;;
70866;SDS011;58487;53.474;49.470;2023-05-31T04:04:14;10.90;;;3.60;;
70866;SDS011;58487;53.474;49.470;2023-05-31T04:06:40;16.95;;;4.40;;
70866;SDS011;58487;53.474;49.470;2023-05-31T04:09:06;12.82;;;3.83;;
70866;SDS011;58487;53.474;49.470;2023-05-31T04:11:32;11.27;;;3.88;;
70866;SDS011;58487;53.474;49.470;2023-05-31T04:13:58;11.37;;;3.60;;
70866;SDS011;58487;53.474;49.470;2023-05-31T04:16:27;18.52;;;3.60;;
70866;SDS011;58487;53.474;49.470;2023-05-31T04:18:53;12.88;;;4.38;;
70866;SDS011;58487;53.474;49.470;2023-05-31T04:21:19;15.10;;;4.10;;
70866;SDS011;58487;53.474;49.470;2023-05-31T04:23:46;16.25;;;4.10;;
70866;SDS011;58487;53.474;49.470;2023-05-31T04:26:12;14.63;;;4.07;;
70866;SDS011;58487;53.474;49.470;2023-05-31T04:28:42;14.27;;;4.30;;
70866;SDS011;58487;53.474;49.470;2023-05-31T04:31:09;19.92;;;4.35;;
70866;SDS011;58487;53.474;49.470;2023-05-31T04:33:35;14.95;;;4.60;;
70866;SDS011;58487;53.474;49.470;2023-05-31T04:36:02;15.25;;;4.15;;
70866;SDS011;58487;53.474;49.470;2023-05-31T04:38:30;13.73;;;3.63;;
70866;SDS011;58487;53.474;49.470;2023-05-31T04:40:57;15.77;;;3.88;;
70866;SDS011;58487;53.474;49.470;2023-05-31T04:43:25;15.85;;;4.22;;
70866;SDS011;58487;53.474;49.470;2023-05-31T04:45:52;14.07;;;4.40;;
70866;SDS011;58487;53.474;49.470;2023-05-31T04:48:21;14.88;;;4.40;;
70866;SDS011;58487;53.474;49.470;2023-05-31T04:50:49;15.93;;;3.97;;
70866;SDS011;58487;53.474;49.470;2023-05-31T04:53:16;12.20;;;3.80;;
70866;SDS011;58487;53.474;49.470;2023-05-31T04:55:42;14.07;;;4.00;;
70866;SDS011;58487;53.474;49.470;2023-05-31T04:58:08;14.25;;;4.43;;
70866;SDS011;58487;53.474;49.470;2023-05-31T05:00:34;14.48;;;4.43;;
70866;SDS011;58487;53.474;49.470;2023-05-31T05:03:02;16.60;;;5.00;;
70866;SDS011;58487;53.474;49.470;2023-05-31T05:05:29;18.40;;;4.05;;
70866;SDS011;58487;53.474;49.470;2023-05-31T05:07:55;19.42;;;3.88;;
70866;SDS011;58487;53.474;49.470;2023-05-31T05:10:21;12.10;;;4.03;;
70866;SDS011;58487;53.474;49.470;2023-05-31T05:12:47;16.02;;;4.30;;
70866;SDS011;58487;53.474;49.470;2023-05-31T05:15:13;16.80;;;4.57;;
70866;SDS011;58487;53.474;49.470;2023-05-31T05:17:39;17.05;;;4.97;;
70866;SDS011;58487;53.474;49.470;2023-05-31T05:20:06;11.10;;;4.25;;
70866;SDS011;58487;53.474;49.470;2023-05-31T05:22:36;13.52;;;4.55;;
70866;SDS011;58487;53.474;49.470;2023-05-31T05:25:02;14.80;;;4.40;;
70866;SDS011;58487;53.474;49.470;2023-05-31T05:27:28;16.37;;;5.60;;
70866;SDS011;58487;53.474;49.470;2023-05-31T05:29:54;13.82;;;4.65;;
70866;SDS011;58487;53.474;49.470;2023-05-31T05:32:20;14.13;;;4.35;;
70866;SDS011;58487;53.474;49.470;2023-05-31T05:34:46;16.08;;;5.00;;
70866;SDS011;58487;53.474;49.470;2023-05-31T05:37:12;15.50;;;5.40;;
70866;SDS011;58487;53.474;49.470;2023-05-31T05:39:38;18.47;;;5.30;;
70866;SDS011;58487;53.474;49.470;2023-05-31T05:42:05;20.13;;;4.70;;
70866;SDS011;58487;53.474;49.470;2023-05-31T05:44:31;15.55;;;4.47;;
70866;SDS011;58487;53.474;49.470;2023-05-31T05:46:57;18.23;;;4.63;;
70866;SDS011;58487;53.474;49.470;2023-05-31T05:49:23;19.20;;;5.25;;
70866;SDS011;58487;53.474;49.470;2023-05-31T05:51:49;15.07;;;4.10;;
70866;SDS011;58487;53.474;49.470;2023-05-31T05:54:16;18.52;;;4.60;;
70866;SDS011;58487;53.474;49.470;2023-05-31T05:56:42;14.85;;;4.55;;
70866;SDS011;58487;53.474;49.470;2023-05-31T05:59:08;21.33;;;5.63;;
70866;SDS011;58487;53.474;49.470;2023-05-31T06:01:34;18.92;;;4.63;;
70866;SDS011;58487;53.474;49.470;2023-05-31T06:04:01;20.33;;;4.80;;
70866;SDS011;58487;53.474;49.470;2023-05-31T06:06:27;25.42;;;5.82;;
70866;SDS011;58487;53.474;49.470;2023-05-31T06:08:53;18.40;;;5.25;;
70866;SDS011;58487;53.474;49.470;2023-05-31T06:11:19;14.40;;;4.20;;
70866;SDS011;58487;53.474;49.470;2023-05-31T06:13:45;21.23;;;5.90;;
70866;SDS011;58487;53.474;49.470;2023-05-31T06:16:12;22.10;;;5.23;;
70866;SDS011;58487;53.474;49.470;2023-05-31T06:18:39;18.65;;;4.85;;
70866;SDS011;58487;53.474;49.470;2023-05-31T06:21:05;14.80;;;4.70;;
70866;SDS011;58487;53.474;49.470;2023-05-31T06:23:31;11.65;;;5.03;;
70866;SDS011;58487;53.474;49.470;2023-05-31T06:25:57;16.92;;;4.55;;
70866;SDS011;58487;53.474;49.470;2023-05-31T06:28:23;22.50;;;5.67;;
70866;SDS011;58487;53.474;49.470;2023-05-31T06:30:49;19.63;;;4.95;;
70866;SDS011;58487;53.474;49.470;2023-05-31T06:33:15;14.30;;;4.10;;
70866;SDS011;58487;53.474;49.470;2023-05-31T06:35:41;19.02;;;5.25;;
70866;SDS011;58487;53.474;49.470;2023-05-31T06:38:09;19.13;;;5.18;;
70866;SDS011;58487;53.474;49.470;2023-05-31T06:40:41;10.83;;;4.40;;
70866;SDS011;58487;53.474;49.470;2023-05-31T06:43:08;11.60;;;3.58;;
70866;SDS011;58487;53.474;49.470;2023-05-31T06:45:35;12.00;;;3.90;;
70866;SDS011;58487;53.474;49.470;2023-05-31T06:48:01;10.15;;;3.70;;
70866;SDS011;58487;53.474;49.470;2023-05-31T06:50:28;15.93;;;3.60;;
70866;SDS011;58487;53.474;49.470;2023-05-31T06:52:54;12.33;;;4.00;;
70866;SDS011;58487;53.474;49.470;2023-05-31T06:55:20;17.65;;;4.90;;
70866;SDS011;58487;53.474;49.470;2023-05-31T06:57:46;12.75;;;4.40;;
70866;SDS011;58487;53.474;49.470;2023-05-31T07:00:12;12.05;;;3.72;;
70866;SDS011;58487;53.474;49.470;2023-05-31T07:02:39;14.07;;;3.60;;
70866;SDS011;58487;53.474;49.470;2023-05-31T07:05:05;9.00;;;3.10;;
70866;SDS011;58487;53.474;49.470;2023-05-31T07:07:31;10.70;;;3.50;;
70866;SDS011;58487;53.474;49.470;2023-05-31T07:09:57;12.00;;;4.53;;
70866;SDS011;58487;53.474;49.470;2023-05-31T07:12:23;11.60;;;4.03;;
70866;SDS011;58487;53.474;49.470;2023-05-31T07:14:50;12.95;;;4.38;;
70866;SDS011;58487;53.474;49.470;2023-05-31T07:17:16;16.23;;;4.20;;
70866;SDS011;58487;53.474;49.470;2023-05-31T07:19:45;11.35;;;4.70;;
70866;SDS011;58487;53.474;49.470;2023-05-31T07:22:13;15.13;;;4.50;;
70866;SDS011;58487;53.474;49.470;2023-05-31T07:24:39;9.95;;;3.92;;
70866;SDS011;58487;53.474;49.470;2023-05-31T07:27:06;13.95;;;4.63;;
70866;SDS011;58487;53.474;49.470;2023-05-31T07:29:33;11.00;;;4.00;;
70866;SDS011;58487;53.474;49.470;2023-05-31T07:32:00;11.68;;;4.10;;
70866;SDS011;58487;53.474;49.470;2023-05-31T07:34:26;12.23;;;4.05;;
70866;SDS011;58487;53.474;49.470;2023-05-31T07:36:52;11.68;;;4.32;;
70866;SDS011;58487;53.474;49.470;2023-05-31T07:39:20;11.95;;;4.35;;
70866;SDS011;58487;53.474;49.470;2023-05-31T07:41:47;12.83;;;4.33;;
70866;SDS011;58487;53.474;49.470;2023-05-31T07:44:13;9.90;;;4.00;;
70866;SDS011;58487;53.474;49.470;2023-05-31T07:46:44;11.57;;;4.30;;
70866;SDS011;58487;53.474;49.470;2023-05-31T07:49:10;11.70;;;4.30;;
70866;SDS011;58487;53.474;49.470;2023-05-31T07:51:37;11.52;;;4.28;;
70866;SDS011;58487;53.474;49.470;2023-05-31T07:54:04;11.77;;;4.00;;
70866;SDS011;58487;53.474;49.470;2023-05-31T07:56:30;9.13;;;3.55;;
70866;SDS011;58487;53.474;49.470;2023-05-31T07:58:56;12.90;;;3.90;;
70866;SDS011;58487;53.474;49.470;2023-05-31T08:01:22;20.48;;;4.35;;
70866;SDS011;58487;53.474;49.470;2023-05-31T08:03:48;14.98;;;4.03;;
70866;SDS011;58487;53.474;49.470;2023-05-31T08:06:16;14.80;;;4.60;;
70866;SDS011;58487;53.474;49.470;2023-05-31T08:08:43;9.23;;;3.55;;
70866;SDS011;58487;53.474;49.470;2023-05-31T08:11:09;9.98;;;3.92;;
70866;SDS011;58487;53.474;49.470;2023-05-31T08:13:36;12.13;;;3.50;;
70866;SDS011;58487;53.474;49.470;2023-05-31T08:16:02;11.63;;;3.90;;
70866;SDS011;58487;53.474;49.470;2023-05-31T08:18:28;12.37;;;4.30;;
70866;SDS011;58487;53.474;49.470;2023-05-31T08:20:54;7.18;;;3.17;;
70866;SDS011;58487;53.474;49.470;2023-05-31T08:23:20;11.30;;;3.88;;
70866;SDS011;58487;53.474;49.470;2023-05-31T08:25:47;8.80;;;3.63;;
70866;SDS011;58487;53.474;49.470;2023-05-31T08:28:14;11.02;;;3.50;;
70866;SDS011;58487;53.474;49.470;2023-05-31T08:30:40;8.87;;;3.73;;
70866;SDS011;58487;53.474;49.470;2023-05-31T08:33:06;10.02;;;4.28;;
70866;SDS011;58487;53.474;49.470;2023-05-31T08:35:32;13.52;;;3.33;;
70866;SDS011;58487;53.474;49.470;2023-05-31T08:37:59;10.57;;;3.15;;
70866;SDS011;58487;53.474;49.470;2023-05-31T08:40:25;10.02;;;3.70;;
70866;SDS011;58487;53.474;49.470;2023-05-31T08:42:55;12.30;;;4.07;;
70866;SDS011;58487;53.474;49.470;2023-05-31T08:45:25;7.68;;;3.25;;
70866;SDS011;58487;53.474;49.470;2023-05-31T08:50:23;12.30;;;4.35;;
70866;SDS011;58487;53.474;49.470;2023-05-31T08:52:51;12.80;;;3.95;;
70866;SDS011;58487;53.474;49.470;2023-05-31T08:55:19;10.07;;;3.87;;
70866;SDS011;58487;53.474;49.470;2023-05-31T08:57:46;9.77;;;4.20;;
70866;SDS011;58487;53.474;49.470;2023-05-31T09:00:13;9.60;;;4.10;;
70866;SDS011;58487;53.474;49.470;2023-05-31T09:02:39;13.82;;;4.75;;
70866;SDS011;58487;53.474;49.470;2023-05-31T09:05:07;15.57;;;4.60;;
70866;SDS011;58487;53.474;49.470;2023-05-31T09:07:36;8.53;;;3.80;;
70866;SDS011;58487;53.474;49.470;2023-05-31T09:10:03;8.48;;;4.25;;
70866;SDS011;58487;53.474;49.470;2023-05-31T09:12:32;17.13;;;5.70;;
70866;SDS011;58487;53.474;49.470;2023-05-31T09:14:58;16.33;;;4.45;;
70866;SDS011;58487;53.474;49.470;2023-05-31T09:17:24;11.77;;;4.60;;
70866;SDS011;58487;53.474;49.470;2023-05-31T09:19:54;15.20;;;5.30;;
70866;SDS011;58487;53.474;49.470;2023-05-31T09:22:21;17.98;;;5.05;;
70866;SDS011;58487;53.474;49.470;2023-05-31T09:24:54;16.73;;;5.03;;
70866;SDS011;58487;53.474;49.470;2023-05-31T09:27:22;10.95;;;5.00;;
70866;SDS011;58487;53.474;49.470;2023-05-31T09:29:52;13.35;;;5.05;;
70866;SDS011;58487;53.474;49.470;2023-05-31T09:32:19;13.57;;;5.53;;
70866;SDS011;58487;53.474;49.470;2023-05-31T09:34:45;12.87;;;4.27;;
70866;SDS011;58487;53.474;49.470;2023-05-31T09:37:21;16.23;;;5.53;;
70866;SDS011;58487;53.474;49.470;2023-05-31T09:39:55;14.98;;;5.40;;
70866;SDS011;58487;53.474;49.470;2023-05-31T09:42:24;12.93;;;5.22;;
70866;SDS011;58487;53.474;49.470;2023-05-31T09:44:52;15.68;;;5.28;;
70866;SDS011;58487;53.474;49.470;2023-05-31T09:47:24;17.13;;;5.77;;
70866;SDS011;58487;53.474;49.470;2023-05-31T09:49:54;15.60;;;5.32;;
70866;SDS011;58487;53.474;49.470;2023-05-31T09:52:27;13.85;;;4.93;;
70866;SDS011;58487;53.474;49.470;2023-05-31T09:54:56;17.05;;;6.20;;
70866;SDS011;58487;53.474;49.470;2023-05-31T09:57:34;12.93;;;5.03;;
70866;SDS011;58487;53.474;49.470;2023-05-31T10:00:10;19.17;;;5.83;;
70866;SDS011;58487;53.474;49.470;2023-05-31T10:02:40;15.23;;;5.50;;
70866;SDS011;58487;53.474;49.470;2023-05-31T10:05:08;15.18;;;5.53;;
70866;SDS011;58487;53.474;49.470;2023-05-31T10:07:38;18.60;;;5.75;;
70866;SDS011;58487;53.474;49.470;2023-05-31T10:10:08;13.38;;;5.00;;
70866;SDS011;58487;53.474;49.470;2023-05-31T10:15:19;17.27;;;5.73;;
70866;SDS011;58487;53.474;49.470;2023-05-31T10:17:58;18.50;;;5.63;;
70866;SDS011;58487;53.474;49.470;2023-05-31T10:20:38;17.25;;;5.53;;
70866;SDS011;58487;53.474;49.470;2023-05-31T10:23:29;15.32;;;5.95;;
70866;SDS011;58487;53.474;49.470;2023-05-31T10:31:54;15.93;;;5.33;;
70866;SDS011;58487;53.474;49.470;2023-05-31T10:34:26;16.70;;;5.27;;
70866;SDS011;58487;53.474;49.470;2023-05-31T10:36:53;13.77;;;5.22;;
70866;SDS011;58487;53.474;49.470;2023-05-31T10:42:14;14.98;;;5.35;;
70866;SDS011;58487;53.474;49.470;2023-05-31T10:47:55;10.27;;;4.57;;
70866;SDS011;58487;53.474;49.470;2023-05-31T10:50:56;15.70;;;4.63;;
70866;SDS011;58487;53.474;49.470;2023-05-31T10:53:27;11.85;;;4.85;;
70866;SDS011;58487;53.474;49.470;2023-05-31T10:56:05;13.02;;;4.57;;
70866;SDS011;58487;53.474;49.470;2023-05-31T10:58:36;12.85;;;4.75;;
70866;SDS011;58487;53.474;49.470;2023-05-31T11:01:03;11.60;;;4.40;;
70866;SDS011;58487;53.474;49.470;2023-05-31T11:03:32;15.23;;;4.63;;
70866;SDS011;58487;53.474;49.470;2023-05-31T11:06:09;15.33;;;4.67;;
70866;SDS011;58487;53.474;49.470;2023-05-31T11:08:55;11.68;;;4.30;;
70866;SDS011;58487;53.474;49.470;2023-05-31T11:14:00;11.40;;;4.20;;
70866;SDS011;58487;53.474;49.470;2023-05-31T11:19:17;10.52;;;4.18;;
70866;SDS011;58487;53.474;49.470;2023-05-31T11:21:46;13.23;;;4.67;;
70866;SDS011;58487;53.474;49.470;2023-05-31T11:26:56;11.48;;;4.30;;
70866;SDS011;58487;53.474;49.470;2023-05-31T11:30:00;10.45;;;4.10;;
70866;SDS011;58487;53.474;49.470;2023-05-31T11:35:04;11.10;;;4.43;;
70866;SDS011;58487;53.474;49.470;2023-05-31T11:37:31;14.00;;;4.73;;
70866;SDS011;58487;53.474;49.470;2023-05-31T11:40:02;12.85;;;4.38;;
70866;SDS011;58487;53.474;49.470;2023-05-31T11:42:31;9.73;;;4.07;;
70866;SDS011;58487;53.474;49.470;2023-05-31T11:50:10;11.60;;;3.80;;
70866;SDS011;58487;53.474;49.470;2023-05-31T11:52:41;13.67;;;4.40;;
70866;SDS011;58487;53.474;49.470;2023-05-31T11:55:08;11.88;;;3.67;;
70866;SDS011;58487;53.474;49.470;2023-05-31T11:57:39;13.43;;;3.80;;
70866;SDS011;58487;53.474;49.470;2023-05-31T12:00:12;11.40;;;4.03;;
70866;SDS011;58487;53.474;49.470;2023-05-31T12:02:42;11.32;;;4.07;;
70866;SDS011;58487;53.474;49.470;2023-05-31T12:05:13;11.48;;;4.20;;
70866;SDS011;58487;53.474;49.470;2023-05-31T12:07:43;11.30;;;3.60;;
70866;SDS011;58487;53.474;49.470;2023-05-31T12:10:10;9.13;;;3.70;;
70866;SDS011;58487;53.474;49.470;2023-05-31T12:12:40;10.00;;;4.07;;
70866;SDS011;58487;53.474;49.470;2023-05-31T12:15:06;10.45;;;3.92;;
70866;SDS011;58487;53.474;49.470;2023-05-31T12:17:34;10.05;;;4.10;;
70866;SDS011;58487;53.474;49.470;2023-05-31T12:20:00;9.00;;;4.20;;
70866;SDS011;58487;53.474;49.470;2023-05-31T12:22:26;10.32;;;3.75;;
70866;SDS011;58487;53.474;49.470;2023-05-31T12:24:53;12.60;;;5.00;;
70866;SDS011;58487;53.474;49.470;2023-05-31T12:27:21;12.77;;;4.50;;
70866;SDS011;58487;53.474;49.470;2023-05-31T12:29:49;11.60;;;3.70;;
70866;SDS011;58487;53.474;49.470;2023-05-31T12:32:16;10.68;;;4.28;;
70866;SDS011;58487;53.474;49.470;2023-05-31T12:34:45;10.35;;;4.05;;
70866;SDS011;58487;53.474;49.470;2023-05-31T12:37:13;9.43;;;4.13;;
70866;SDS011;58487;53.474;49.470;2023-05-31T12:39:39;10.30;;;3.60;;
70866;SDS011;58487;53.474;49.470;2023-05-31T12:42:05;12.32;;;4.00;;
70866;SDS011;58487;53.474;49.470;2023-05-31T12:44:33;8.48;;;3.40;;
70866;SDS011;58487;53.474;49.470;2023-05-31T12:47:00;9.98;;;3.70;;
70866;SDS011;58487;53.474;49.470;2023-05-31T12:49:27;13.43;;;3.80;;
70866;SDS011;58487;53.474;49.470;2023-05-31T12:52:05;13.87;;;3.60;;
70866;SDS011;58487;53.474;49.470;2023-05-31T12:54:36;9.13;;;3.33;;
70866;SDS011;58487;53.474;49.470;2023-05-31T12:57:07;9.43;;;3.55;;
70866;SDS011;58487;53.474;49.470;2023-05-31T12:59:34;10.15;;;3.38;;
70866;SDS011;58487;53.474;49.470;2023-05-31T13:02:02;10.57;;;3.88;;
70866;SDS011;58487;53.474;49.470;2023-05-31T13:04:29;9.13;;;3.37;;
70866;SDS011;58487;53.474;49.470;2023-05-31T13:06:55;9.80;;;3.20;;
70866;SDS011;58487;53.474;49.470;2023-05-31T13:09:25;15.45;;;3.70;;
70866;SDS011;58487;53.474;49.470;2023-05-31T13:11:51;10.70;;;3.70;;
70866;SDS011;58487;53.474;49.470;2023-05-31T13:14:18;8.65;;;3.50;;
70866;SDS011;58487;53.474;49.470;2023-05-31T13:16:45;13.02;;;4.03;;
70866;SDS011;58487;53.474;49.470;2023-05-31T13:19:12;13.67;;;3.77;;
70866;SDS011;58487;53.474;49.470;2023-05-31T13:21:38;11.45;;;3.75;;
70866;SDS011;58487;53.474;49.470;2023-05-31T13:24:05;11.18;;;3.88;;
70866;SDS011;58487;53.474;49.470;2023-05-31T13:26:32;9.60;;;3.38;;
70866;SDS011;58487;53.474;49.470;2023-05-31T13:29:00;12.30;;;3.63;;
70866;SDS011;58487;53.474;49.470;2023-05-31T13:31:27;9.47;;;3.50;;
70866;SDS011;58487;53.474;49.470;2023-05-31T13:33:54;9.00;;;3.78;;
70866;SDS011;58487;53.474;49.470;2023-05-31T13:36:21;12.55;;;3.58;;
70866;SDS011;58487;53.474;49.470;2023-05-31T13:38:49;9.40;;;3.70;;
70866;SDS011;58487;53.474;49.470;2023-05-31T13:41:16;10.70;;;3.70;;
70866;SDS011;58487;53.474;49.470;2023-05-31T13:43:43;10.43;;;3.80;;
70866;SDS011;58487;53.474;49.470;2023-05-31T13:46:09;11.70;;;3.88;;
70866;SDS011;58487;53.474;49.470;2023-05-31T13:48:37;11.50;;;3.60;;
70866;SDS011;58487;53.474;49.470;2023-05-31T13:51:04;8.93;;;4.00;;
70866;SDS011;58487;53.474;49.470;2023-05-31T13:53:30;12.88;;;3.72;;
70866;SDS011;58487;53.474;49.470;2023-05-31T13:56:00;13.27;;;3.57;;
70866;SDS011;58487;53.474;49.470;2023-05-31T13:58:26;12.05;;;4.00;;
70866;SDS011;58487;53.474;49.470;2023-05-31T14:00:52;10.35;;;3.80;;
70866;SDS011;58487;53.474;49.470;2023-05-31T14:03:19;6.80;;;3.25;;
70866;SDS011;58487;53.474;49.470;2023-05-31T14:05:45;9.98;;;3.53;;
70866;SDS011;58487;53.474;49.470;2023-05-31T14:08:15;7.90;;;3.60;;
70866;SDS011;58487;53.474;49.470;2023-05-31T14:10:41;11.10;;;3.97;;
70866;SDS011;58487;53.474;49.470;2023-05-31T14:13:07;10.18;;;4.45;;
70866;SDS011;58487;53.474;49.470;2023-05-31T14:15:34;14.55;;;4.30;;
70866;SDS011;58487;53.474;49.470;2023-05-31T14:18:00;10.45;;;4.10;;
70866;SDS011;58487;53.474;49.470;2023-05-31T14:20:26;12.10;;;3.93;;
70866;SDS011;58487;53.474;49.470;2023-05-31T14:22:52;11.60;;;4.05;;
70866;SDS011;58487;53.474;49.470;2023-05-31T14:25:18;9.48;;;4.22;;
70866;SDS011;58487;53.474;49.470;2023-05-31T14:27:44;13.95;;;4.78;;
70866;SDS011;58487;53.474;49.470;2023-05-31T14:30:10;13.98;;;4.85;;
70866;SDS011;58487;53.474;49.470;2023-05-31T14:32:36;11.37;;;4.07;;
70866;SDS011;58487;53.474;49.470;2023-05-31T14:35:02;8.88;;;4.60;;
70866;SDS011;58487;53.474;49.470;2023-05-31T14:37:28;12.70;;;4.88;;
70866;SDS011;58487;53.474;49.470;2023-05-31T14:39:54;12.60;;;4.70;;
70866;SDS011;58487;53.474;49.470;2023-05-31T14:42:21;13.88;;;5.40;;
70866;SDS011;58487;53.474;49.470;2023-05-31T14:44:48;13.13;;;4.80;;
70866;SDS011;58487;53.474;49.470;2023-05-31T14:47:14;13.00;;;4.35;;
70866;SDS011;58487;53.474;49.470;2023-05-31T14:49:40;8.60;;;4.30;;
70866;SDS011;58487;53.474;49.470;2023-05-31T14:52:06;11.13;;;4.50;;
70866;SDS011;58487;53.474;49.470;2023-05-31T14:54:35;13.38;;;5.43;;
70866;SDS011;58487;53.474;49.470;2023-05-31T14:57:01;12.73;;;5.33;;
70866;SDS011;58487;53.474;49.470;2023-05-31T14:59:31;10.98;;;4.30;;
70866;SDS011;58487;53.474;49.470;2023-05-31T15:01:57;10.30;;;4.10;;
70866;SDS011;58487;53.474;49.470;2023-05-31T15:04:25;10.27;;;4.10;;